createdAt,value
2018-05-12T00:00:38.942Z,7.40
2018-05-12T00:03:07.902Z,8.00
2018-05-12T00:05:35.357Z,8.10
2018-05-12T00:08:03.230Z,8.30
2018-05-12T00:10:30.678Z,7.50
2018-05-12T00:12:58.120Z,7.53
2018-05-12T00:15:25.556Z,7.33
2018-05-12T00:17:53.016Z,8.30
2018-05-12T00:20:20.477Z,7.80
2018-05-12T00:22:47.924Z,9.13
2018-05-12T00:25:15.364Z,8.40
2018-05-12T00:27:42.848Z,6.03
2018-05-12T00:30:10.282Z,7.10
2018-05-12T00:32:37.766Z,7.57
2018-05-12T00:35:05.211Z,6.97
2018-05-12T00:37:32.650Z,7.40
2018-05-12T00:40:00.860Z,8.50
2018-05-12T00:42:28.875Z,7.30
2018-05-12T00:44:56.378Z,7.07
2018-05-12T00:47:23.815Z,10.30
2018-05-12T00:49:51.264Z,7.07
2018-05-12T00:52:19.085Z,6.83
2018-05-12T00:54:46.587Z,9.63
2018-05-12T00:57:14.618Z,9.00
2018-05-12T00:59:42.300Z,7.03
2018-05-12T01:02:09.748Z,8.40
2018-05-12T01:04:37.203Z,9.10
2018-05-12T01:07:04.650Z,8.70
2018-05-12T01:09:32.092Z,9.30
2018-05-12T01:11:59.637Z,8.27
2018-05-12T01:14:27.074Z,8.37
2018-05-12T01:16:54.533Z,9.93
2018-05-12T01:19:21.979Z,9.60
2018-05-12T01:21:49.422Z,7.70
2018-05-12T01:24:16.863Z,8.90
2018-05-12T01:26:44.401Z,8.80
2018-05-12T01:29:11.850Z,7.53
2018-05-12T01:31:39.418Z,9.23
2018-05-12T01:34:06.939Z,8.60
2018-05-12T01:36:34.358Z,9.70
2018-05-12T01:39:01.795Z,8.43
2018-05-12T01:41:29.325Z,8.03
2018-05-12T01:43:56.779Z,7.67
2018-05-12T01:46:24.231Z,8.60
2018-05-12T01:48:51.721Z,9.40
2018-05-12T01:51:19.502Z,9.70
2018-05-12T01:53:46.932Z,7.63
2018-05-12T01:56:14.388Z,8.63
2018-05-12T01:58:41.831Z,9.20
2018-05-12T02:01:09.746Z,8.27
2018-05-12T02:03:37.218Z,10.33
2018-05-12T02:06:04.671Z,9.47
2018-05-12T02:08:32.561Z,9.17
2018-05-12T02:11:00.020Z,8.90
2018-05-12T02:13:27.467Z,9.00
2018-05-12T02:15:54.899Z,9.23
2018-05-12T02:18:22.355Z,9.70
2018-05-12T02:20:49.865Z,8.67
2018-05-12T02:23:17.358Z,9.60
2018-05-12T02:25:44.821Z,8.90
2018-05-12T02:28:12.270Z,9.40
2018-05-12T02:30:40.134Z,7.37
2018-05-12T02:33:07.607Z,8.67
2018-05-12T02:35:35.436Z,7.70
2018-05-12T02:38:02.900Z,8.93
2018-05-12T02:40:30.336Z,8.20
2018-05-12T02:42:57.844Z,9.80
2018-05-12T02:45:25.304Z,10.80
2018-05-12T02:47:52.747Z,9.67
2018-05-12T02:50:20.284Z,10.33
2018-05-12T02:52:47.753Z,9.60
2018-05-12T02:55:15.215Z,9.53
2018-05-12T02:57:42.671Z,9.20
2018-05-12T03:00:10.133Z,9.50
2018-05-12T03:02:37.587Z,7.87
2018-05-12T03:05:05.016Z,8.53
2018-05-12T03:07:32.490Z,8.13
2018-05-12T03:10:00.394Z,7.77
2018-05-12T03:12:27.833Z,9.10
2018-05-12T03:14:55.317Z,9.03
2018-05-12T03:17:22.743Z,9.90
2018-05-12T03:19:50.209Z,8.23
2018-05-12T03:22:18.033Z,8.10
2018-05-12T03:24:45.484Z,10.00
2018-05-12T03:27:12.948Z,10.10
2018-05-12T03:29:40.484Z,9.20
2018-05-12T03:32:07.965Z,9.27
2018-05-12T03:34:35.417Z,10.70
2018-05-12T03:37:02.861Z,6.27
2018-05-12T03:39:30.315Z,8.53
2018-05-12T03:41:57.768Z,8.17
2018-05-12T03:44:25.259Z,8.57
2018-05-12T03:46:52.669Z,8.53
2018-05-12T03:49:20.511Z,8.77
2018-05-12T03:51:47.952Z,7.13
2018-05-12T03:54:15.470Z,8.80
2018-05-12T03:56:42.938Z,8.40
2018-05-12T03:59:10.445Z,8.00
2018-05-12T04:01:38.209Z,10.80
2018-05-12T04:04:05.657Z,8.23
2018-05-12T04:06:44.889Z,9.23
2018-05-12T04:09:24.237Z,10.20
2018-05-12T04:12:03.531Z,9.03
2018-05-12T04:14:30.970Z,8.87
2018-05-12T04:16:58.416Z,9.80
2018-05-12T04:19:26.114Z,9.50
2018-05-12T04:21:53.551Z,9.27
2018-05-12T04:24:21.021Z,10.73
2018-05-12T04:26:48.460Z,9.93
2018-05-12T04:29:15.921Z,9.20
2018-05-12T04:31:43.393Z,8.70
2018-05-12T04:34:10.829Z,9.43
2018-05-12T04:36:38.323Z,7.67
2018-05-12T04:39:05.785Z,7.93
2018-05-12T04:41:33.280Z,8.43
2018-05-12T04:44:00.739Z,7.80
2018-05-12T04:46:28.168Z,6.70
2018-05-12T04:48:55.632Z,8.97
2018-05-12T04:51:23.093Z,7.73
2018-05-12T04:53:50.533Z,6.77
2018-05-12T04:56:18.048Z,6.40
2018-05-12T04:58:45.490Z,6.97
2018-05-12T05:01:13.021Z,8.00
2018-05-12T05:03:40.485Z,9.80
2018-05-12T05:06:07.946Z,8.43
2018-05-12T05:08:35.402Z,8.30
2018-05-12T05:11:02.836Z,9.27
2018-05-12T05:13:30.277Z,8.00
2018-05-12T05:15:57.738Z,8.60
2018-05-12T05:18:25.195Z,7.40
2018-05-12T05:20:52.726Z,9.07
2018-05-12T05:23:20.189Z,11.10
2018-05-12T05:25:47.623Z,10.27
2018-05-12T05:28:15.098Z,9.40
2018-05-12T05:30:42.895Z,8.70
2018-05-12T05:33:10.364Z,8.97
2018-05-12T05:35:37.812Z,9.47
2018-05-12T05:38:05.266Z,10.40
2018-05-12T05:40:32.720Z,11.40
2018-05-12T05:43:00.156Z,9.93
2018-05-12T05:45:27.619Z,8.17
2018-05-12T05:47:55.064Z,11.03
2018-05-12T05:50:22.512Z,8.33
2018-05-12T05:52:49.958Z,10.30
2018-05-12T05:55:17.397Z,9.30
2018-05-12T05:57:44.852Z,9.50
2018-05-12T06:00:12.509Z,9.23
2018-05-12T06:02:39.953Z,9.30
2018-05-12T06:05:07.409Z,10.67
2018-05-12T06:07:34.848Z,9.77
2018-05-12T06:10:02.324Z,9.80
2018-05-12T06:12:29.757Z,9.30
2018-05-12T06:14:57.195Z,8.90
2018-05-12T06:17:24.635Z,8.50
2018-05-12T06:19:52.080Z,9.67
2018-05-12T06:22:19.660Z,10.70
2018-05-12T06:24:47.106Z,9.90
2018-05-12T06:27:14.548Z,10.87
2018-05-12T06:29:42.013Z,8.70
2018-05-12T06:32:09.452Z,8.90
2018-05-12T06:34:36.931Z,10.23
2018-05-12T06:37:04.389Z,8.87
2018-05-12T06:39:31.849Z,9.63
2018-05-12T06:41:59.315Z,8.00
2018-05-12T06:44:26.744Z,9.60
2018-05-12T06:46:54.206Z,10.77
2018-05-12T06:49:21.653Z,8.10
2018-05-12T06:51:49.123Z,11.07
2018-05-12T06:54:16.580Z,9.60
2018-05-12T06:56:44.017Z,9.37
2018-05-12T06:59:11.543Z,8.70
2018-05-12T07:01:39.758Z,7.83
2018-05-12T07:04:07.211Z,10.43
2018-05-12T07:06:34.680Z,9.87
2018-05-12T07:09:02.165Z,8.80
2018-05-12T07:11:29.673Z,8.10
2018-05-12T07:13:57.492Z,7.93
2018-05-12T07:16:25.039Z,8.90
2018-05-12T07:18:52.839Z,8.70
2018-05-12T07:21:20.297Z,8.80
2018-05-12T07:23:47.749Z,9.33
2018-05-12T07:26:15.227Z,9.07
2018-05-12T07:28:42.694Z,10.33
2018-05-12T07:31:10.166Z,10.43
2018-05-12T07:33:37.621Z,9.70
2018-05-12T07:36:06.009Z,9.63
2018-05-12T07:38:33.446Z,9.43
2018-05-12T07:41:00.896Z,10.77
2018-05-12T07:43:28.347Z,9.60
2018-05-12T07:45:56.092Z,10.13
2018-05-12T07:48:23.680Z,8.63
2018-05-12T07:50:51.768Z,11.17
2018-05-12T07:53:19.530Z,8.30
2018-05-12T07:55:47.040Z,9.37
2018-05-12T07:58:14.510Z,10.90
2018-05-12T08:00:42.140Z,9.93
2018-05-12T08:03:09.625Z,10.10
2018-05-12T08:05:37.426Z,9.90
2018-05-12T08:08:04.879Z,10.57
2018-05-12T08:10:32.550Z,9.37
2018-05-12T08:13:01.463Z,8.70
2018-05-12T08:15:29.136Z,9.40
2018-05-12T08:17:56.585Z,9.23
2018-05-12T08:20:24.699Z,9.20
2018-05-12T08:22:52.542Z,8.17
2018-05-12T08:25:20.005Z,10.10
2018-05-12T08:27:47.541Z,8.20
2018-05-12T08:30:15.321Z,8.27
2018-05-12T08:32:42.880Z,8.97
2018-05-12T08:35:10.476Z,9.47
2018-05-12T08:37:38.163Z,8.47
2018-05-12T08:40:05.631Z,10.40
2018-05-12T08:42:33.328Z,8.27
2018-05-12T08:45:00.787Z,9.13
2018-05-12T08:47:28.260Z,9.80
2018-05-12T08:49:56.282Z,9.70
2018-05-12T08:52:23.757Z,8.73
2018-05-12T08:54:51.689Z,11.10
2018-05-12T08:57:19.119Z,9.83
2018-05-12T08:59:46.588Z,7.73
2018-05-12T09:02:14.396Z,8.40
2018-05-12T09:04:41.846Z,9.13
2018-05-12T09:07:09.602Z,9.50
2018-05-12T09:09:37.531Z,9.20
2018-05-12T09:12:04.989Z,8.90
2018-05-12T09:14:32.551Z,8.87
2018-05-12T09:17:00.272Z,12.07
2018-05-12T09:19:27.731Z,9.50
2018-05-12T09:21:56.093Z,8.60
2018-05-12T09:24:23.548Z,9.83
2018-05-12T09:26:51.321Z,9.57
2018-05-12T09:29:18.775Z,9.90
2018-05-12T09:31:46.374Z,10.90
2018-05-12T09:34:13.811Z,11.10
2018-05-12T09:36:41.264Z,8.30
2018-05-12T09:39:08.782Z,9.40
2018-05-12T09:41:36.332Z,9.40
2018-05-12T09:44:04.132Z,8.57
2018-05-12T09:46:32.014Z,8.43
2018-05-12T09:48:59.496Z,10.57
2018-05-12T09:51:26.951Z,8.90
2018-05-12T09:53:54.840Z,8.27
2018-05-12T09:56:22.661Z,7.70
2018-05-12T09:58:50.191Z,7.47
2018-05-12T10:01:17.664Z,8.07
2018-05-12T10:03:45.124Z,8.70
2018-05-12T10:06:12.599Z,8.67
2018-05-12T10:08:40.284Z,8.80
2018-05-12T10:11:07.742Z,10.70
2018-05-12T10:13:35.208Z,9.10
2018-05-12T10:16:02.663Z,10.40
2018-05-12T10:18:30.139Z,8.80
2018-05-12T10:20:57.780Z,8.97
2018-05-12T10:23:25.216Z,8.57
2018-05-12T10:25:52.693Z,8.53
2018-05-12T10:28:20.162Z,9.40
2018-05-12T10:30:47.617Z,8.10
2018-05-12T10:33:15.069Z,8.73
2018-05-12T10:35:42.528Z,7.77
2018-05-12T10:38:10.005Z,7.80
2018-05-12T10:40:37.448Z,8.67
2018-05-12T10:43:04.918Z,8.13
2018-05-12T10:45:32.693Z,8.40
2018-05-12T10:48:00.151Z,7.07
2018-05-12T10:50:27.641Z,6.50
2018-05-12T10:52:55.514Z,7.90
2018-05-12T10:55:22.965Z,6.80
2018-05-12T10:57:50.829Z,6.83
2018-05-12T11:00:18.355Z,6.33
2018-05-12T11:02:45.810Z,6.50
2018-05-12T11:05:13.256Z,5.57
2018-05-12T11:07:40.701Z,5.47
2018-05-12T11:10:08.527Z,4.73
2018-05-12T11:12:35.958Z,6.30
2018-05-12T11:15:03.431Z,6.37
2018-05-12T11:17:30.861Z,5.97
2018-05-12T11:19:58.312Z,6.00
2018-05-12T11:22:25.931Z,5.77
2018-05-12T11:24:53.348Z,6.43
2018-05-12T11:27:20.792Z,6.40
2018-05-12T11:29:48.237Z,5.50
2018-05-12T11:32:15.764Z,5.60
2018-05-12T11:34:43.148Z,4.93
2018-05-12T11:37:10.582Z,4.30
2018-05-12T11:39:38.036Z,5.10
2018-05-12T11:42:05.539Z,5.67
2018-05-12T11:44:33.067Z,4.93
2018-05-12T11:47:00.454Z,5.50
2018-05-12T11:49:27.906Z,4.90
2018-05-12T11:51:55.359Z,5.90
2018-05-12T11:54:22.799Z,5.20
2018-05-12T11:56:50.247Z,5.50
2018-05-12T11:59:17.688Z,5.17
2018-05-12T12:01:45.164Z,4.93
2018-05-12T12:04:12.600Z,4.40
2018-05-12T12:06:40.161Z,3.80
2018-05-12T12:09:07.608Z,3.73
2018-05-12T12:11:35.491Z,4.00
2018-05-12T12:14:02.973Z,3.80
2018-05-12T12:16:30.507Z,3.63
2018-05-12T12:18:57.858Z,4.63
2018-05-12T12:21:25.443Z,4.47
2018-05-12T12:23:52.889Z,4.30
2018-05-12T12:26:20.343Z,4.70
2018-05-12T12:28:47.796Z,4.73
2018-05-12T12:31:15.274Z,4.27
2018-05-12T12:33:42.737Z,4.47
2018-05-12T12:36:10.175Z,3.80
2018-05-12T12:38:37.665Z,4.20
2018-05-12T12:41:05.135Z,4.00
2018-05-12T12:43:32.577Z,3.60
2018-05-12T12:46:00.025Z,3.90
2018-05-12T12:48:27.484Z,3.30
2018-05-12T12:50:54.951Z,3.50
2018-05-12T12:53:22.729Z,2.60
2018-05-12T12:55:50.173Z,3.03
2018-05-12T12:58:17.942Z,3.27
2018-05-12T13:00:45.318Z,3.03
2018-05-12T13:03:12.767Z,2.73
2018-05-12T13:05:40.199Z,3.80
2018-05-12T13:08:08.417Z,5.30
2018-05-12T13:10:35.885Z,4.90
2018-05-12T13:13:03.331Z,5.03
2018-05-12T13:15:30.786Z,4.43
2018-05-12T13:17:58.998Z,5.00
2018-05-12T13:20:26.442Z,5.23
2018-05-12T13:22:55.504Z,4.17
2018-05-12T13:25:22.948Z,5.13
2018-05-12T13:27:50.426Z,3.90
2018-05-12T13:30:19.590Z,4.30
2018-05-12T13:32:47.012Z,5.17
2018-05-12T13:35:14.453Z,3.90
2018-05-12T13:37:42.652Z,4.53
2018-05-12T13:40:10.095Z,5.30
2018-05-12T13:42:38.542Z,5.20
2018-05-12T13:45:06.014Z,5.40
2018-05-12T13:47:33.469Z,4.87
2018-05-12T13:50:00.920Z,4.30
2018-05-12T13:52:28.477Z,5.37
2018-05-12T13:54:55.912Z,4.40
2018-05-12T13:57:23.348Z,4.23
2018-05-12T13:59:51.574Z,4.33
2018-05-12T14:02:19.075Z,4.30
2018-05-12T14:04:46.529Z,4.27
2018-05-12T14:07:13.966Z,5.00
2018-05-12T14:09:41.392Z,4.13
2018-05-12T14:12:08.944Z,4.30
2018-05-12T14:14:36.368Z,4.60
2018-05-12T14:17:03.815Z,4.00
2018-05-12T14:19:31.262Z,4.30
2018-05-12T14:21:58.740Z,3.60
2018-05-12T14:24:26.283Z,4.53
2018-05-12T14:26:53.723Z,5.00
2018-05-12T14:29:21.171Z,5.00
2018-05-12T14:31:48.608Z,5.57
2018-05-12T14:34:16.047Z,5.20
2018-05-12T14:36:43.524Z,4.33
2018-05-12T14:39:10.951Z,4.43
2018-05-12T14:41:38.416Z,3.97
2018-05-12T14:44:05.860Z,3.93
2018-05-12T14:46:33.295Z,3.97
2018-05-12T14:49:00.771Z,4.10
2018-05-12T14:51:28.221Z,4.30
2018-05-12T14:53:56.452Z,4.50
2018-05-12T14:56:24.098Z,3.53
2018-05-12T14:58:51.523Z,4.40
2018-05-12T15:01:19.796Z,3.87
2018-05-12T15:03:47.221Z,4.07
2018-05-12T15:06:14.753Z,3.93
2018-05-12T15:08:42.187Z,4.03
2018-05-12T15:11:10.419Z,3.80
2018-05-12T15:13:37.892Z,5.97
2018-05-12T15:16:05.438Z,3.23
2018-05-12T15:18:33.137Z,4.50
2018-05-12T15:21:00.599Z,4.70
2018-05-12T15:23:28.139Z,3.90
2018-05-12T15:25:55.594Z,3.77
2018-05-12T15:28:23.117Z,4.20
2018-05-12T15:30:50.558Z,4.10
2018-05-12T15:33:18.083Z,3.57
2018-05-12T15:35:45.552Z,4.37
2018-05-12T15:38:13.011Z,5.00
2018-05-12T15:40:40.464Z,4.78
2018-05-12T15:43:08.128Z,4.17
2018-05-12T15:45:35.570Z,3.67
2018-05-12T15:48:03.017Z,3.70
2018-05-12T15:50:31.261Z,3.90
2018-05-12T15:52:58.719Z,3.90
2018-05-12T15:55:26.359Z,3.87
2018-05-12T15:57:53.804Z,4.87
2018-05-12T16:00:21.259Z,4.10
2018-05-12T16:02:48.792Z,3.10
2018-05-12T16:05:16.240Z,3.80
2018-05-12T16:07:43.703Z,4.50
2018-05-12T16:10:11.173Z,4.50
2018-05-12T16:12:38.624Z,4.50
2018-05-12T16:15:06.079Z,4.93
2018-05-12T16:17:33.560Z,5.00
2018-05-12T16:20:01.030Z,4.63
2018-05-12T16:22:28.505Z,4.47
2018-05-12T16:24:55.971Z,4.50
2018-05-12T16:27:23.417Z,3.70
2018-05-12T16:29:50.888Z,4.23
2018-05-12T16:32:18.712Z,4.30
2018-05-12T16:34:46.159Z,5.20
2018-05-12T16:37:13.628Z,4.00
2018-05-12T16:39:41.089Z,4.40
2018-05-12T16:42:08.557Z,3.90
2018-05-12T16:44:36.056Z,3.80
2018-05-12T16:47:03.453Z,4.13
2018-05-12T16:49:30.903Z,3.67
2018-05-12T16:51:58.428Z,4.23
2018-05-12T16:54:25.912Z,3.27
2018-05-12T16:56:53.374Z,4.43
2018-05-12T16:59:20.825Z,4.67
2018-05-12T17:01:48.284Z,4.50
2018-05-12T17:04:15.737Z,4.30
2018-05-12T17:06:43.200Z,4.00
2018-05-12T17:09:10.671Z,4.57
2018-05-12T17:11:38.128Z,3.93
2018-05-12T17:14:05.692Z,4.43
2018-05-12T17:16:33.445Z,3.50
2018-05-12T17:19:00.918Z,4.70
2018-05-12T17:21:28.609Z,4.00
2018-05-12T17:23:56.843Z,4.90
2018-05-12T17:26:25.410Z,3.73
2018-05-12T17:28:52.829Z,6.13
2018-05-12T17:31:20.284Z,5.00
2018-05-12T17:33:47.723Z,4.30
2018-05-12T17:36:15.174Z,4.60
2018-05-12T17:38:42.622Z,3.80
2018-05-12T17:41:10.127Z,3.93
2018-05-12T17:43:37.556Z,4.77
2018-05-12T17:46:05.004Z,4.30
2018-05-12T17:48:32.447Z,3.80
2018-05-12T17:51:00.028Z,4.57
2018-05-12T17:53:27.464Z,4.90
2018-05-12T17:55:54.932Z,3.90
2018-05-12T17:58:22.363Z,4.50
2018-05-12T18:00:49.815Z,4.10
2018-05-12T18:03:17.280Z,4.67
2018-05-12T18:05:44.705Z,3.53
2018-05-12T18:08:12.171Z,3.87
2018-05-12T18:10:39.656Z,4.00
2018-05-12T18:13:07.389Z,3.03
2018-05-12T18:15:34.832Z,4.23
2018-05-12T18:18:02.286Z,3.87
2018-05-12T18:20:30.303Z,5.07
2018-05-12T18:22:57.778Z,4.83
2018-05-12T18:25:25.278Z,4.53
2018-05-12T18:27:52.720Z,5.83
2018-05-12T18:30:20.182Z,4.87
2018-05-12T18:32:47.815Z,6.50
2018-05-12T18:35:15.281Z,6.03
2018-05-12T18:37:42.728Z,6.10
2018-05-12T18:40:10.172Z,5.73
2018-05-12T18:42:37.783Z,4.73
2018-05-12T18:45:05.316Z,4.43
2018-05-12T18:47:32.777Z,5.17
2018-05-12T18:50:00.232Z,5.83
2018-05-12T18:52:27.676Z,6.07
2018-05-12T18:54:55.224Z,6.07
2018-05-12T18:57:22.655Z,4.67
2018-05-12T18:59:50.090Z,5.20
2018-05-12T19:02:17.533Z,5.10
2018-05-12T19:04:44.976Z,5.67
2018-05-12T19:07:12.484Z,4.80
2018-05-12T19:09:39.949Z,5.50
2018-05-12T19:12:07.405Z,5.70
2018-05-12T19:14:34.954Z,4.40
2018-05-12T19:17:02.746Z,5.00
2018-05-12T19:19:30.192Z,3.43
2018-05-12T19:21:57.658Z,3.83
2018-05-12T19:24:25.106Z,4.10
2018-05-12T19:26:53.004Z,4.10
2018-05-12T19:29:20.439Z,4.10
2018-05-12T19:31:48.030Z,4.57
2018-05-12T19:34:15.521Z,3.60
2018-05-12T19:36:42.951Z,4.73
2018-05-12T19:39:10.419Z,4.60
2018-05-12T19:41:37.889Z,4.97
2018-05-12T19:44:05.348Z,4.77
2018-05-12T19:46:32.829Z,4.43
2018-05-12T19:49:00.335Z,5.27
2018-05-12T19:51:27.801Z,3.67
2018-05-12T19:53:55.240Z,3.80
2018-05-12T19:56:22.691Z,5.40
2018-05-12T19:58:50.187Z,4.03
2018-05-12T20:01:17.619Z,5.30
2018-05-12T20:03:45.109Z,3.70
2018-05-12T20:06:12.565Z,4.17
2018-05-12T20:08:40.041Z,4.80
2018-05-12T20:11:07.478Z,4.50
2018-05-12T20:13:34.911Z,3.60
2018-05-12T20:16:02.805Z,5.33
2018-05-12T20:18:30.233Z,4.87
2018-05-12T20:20:58.076Z,4.70
2018-05-12T20:23:25.569Z,5.13
2018-05-12T20:25:53.003Z,4.57
2018-05-12T20:28:20.553Z,4.40
2018-05-12T20:30:47.987Z,5.23
2018-05-12T20:33:15.457Z,4.23
2018-05-12T20:35:42.928Z,4.83
2018-05-12T20:38:10.390Z,4.47
2018-05-12T20:40:37.988Z,4.93
2018-05-12T20:43:05.653Z,4.10
2018-05-12T20:45:33.968Z,4.03
2018-05-12T20:48:01.422Z,5.07
2018-05-12T20:50:29.193Z,3.83
2018-05-12T20:52:56.803Z,4.63
2018-05-12T20:55:24.580Z,4.80
2018-05-12T20:57:52.027Z,4.37
2018-05-12T21:00:19.470Z,5.07
2018-05-12T21:02:46.967Z,5.77
2018-05-12T21:05:14.412Z,4.57
2018-05-12T21:07:41.979Z,4.30
2018-05-12T21:10:09.457Z,4.60
2018-05-12T21:12:36.914Z,4.70
2018-05-12T21:15:04.356Z,4.87
2018-05-12T21:17:31.811Z,3.87
2018-05-12T21:19:59.628Z,4.50
2018-05-12T21:22:27.100Z,4.77
2018-05-12T21:24:54.557Z,3.63
2018-05-12T21:27:22.000Z,4.40
2018-05-12T21:29:49.547Z,4.67
2018-05-12T21:32:17.003Z,4.40
2018-05-12T21:34:44.449Z,4.03
2018-05-12T21:37:12.244Z,3.37
2018-05-12T21:39:39.800Z,4.40
2018-05-12T21:42:07.323Z,4.47
2018-05-12T21:44:35.539Z,4.70
2018-05-12T21:47:03.324Z,4.00
2018-05-12T21:49:30.861Z,4.17
2018-05-12T21:51:58.324Z,3.80
2018-05-12T21:54:25.775Z,3.53
2018-05-12T21:56:53.411Z,4.40
2018-05-12T21:59:20.855Z,4.60
2018-05-12T22:01:48.310Z,4.37
2018-05-12T22:04:16.050Z,4.70
2018-05-12T22:06:43.495Z,4.87
2018-05-12T22:09:10.927Z,3.50
2018-05-12T22:11:38.381Z,3.73
2018-05-12T22:14:05.832Z,3.90
2018-05-12T22:16:33.274Z,4.00
2018-05-12T22:19:00.827Z,4.63
2018-05-12T22:21:28.337Z,4.40
2018-05-12T22:23:55.765Z,3.90
2018-05-12T22:26:23.206Z,4.40
2018-05-12T22:28:50.635Z,5.20
2018-05-12T22:31:18.097Z,4.90
2018-05-12T22:33:45.540Z,5.10
2018-05-12T22:36:13.376Z,4.63
2018-05-12T22:38:40.874Z,4.00
2018-05-12T22:41:08.343Z,4.80
2018-05-12T22:43:35.861Z,6.23
2018-05-12T22:46:03.307Z,4.67
2018-05-12T22:48:30.753Z,4.30
2018-05-12T22:50:58.200Z,4.80
2018-05-12T22:53:25.703Z,5.13
2018-05-12T22:55:53.348Z,4.43
2018-05-12T22:58:21.032Z,4.10
2018-05-12T23:00:48.505Z,3.87
2018-05-12T23:03:15.962Z,3.90
2018-05-12T23:05:43.426Z,5.23
2018-05-12T23:08:10.868Z,5.40
2018-05-12T23:10:38.304Z,4.40
2018-05-12T23:13:05.740Z,6.60
2018-05-12T23:15:33.281Z,4.83
2018-05-12T23:18:00.715Z,4.70
2018-05-12T23:20:28.167Z,4.70
2018-05-12T23:22:55.609Z,4.80
2018-05-12T23:25:23.055Z,3.60
2018-05-12T23:27:50.571Z,4.70
2018-05-12T23:30:18.004Z,4.73
2018-05-12T23:32:45.489Z,3.73
2018-05-12T23:35:12.919Z,4.17
2018-05-12T23:37:40.344Z,4.17
2018-05-12T23:40:07.805Z,5.00
2018-05-12T23:42:35.287Z,5.70
2018-05-12T23:45:02.755Z,4.97
2018-05-12T23:47:30.580Z,4.93
2018-05-12T23:49:58.055Z,5.47
2018-05-12T23:52:25.515Z,5.27
2018-05-12T23:54:52.967Z,4.63
2018-05-12T23:57:20.515Z,6.37
2018-05-12T23:59:47.952Z,5.13
